CYBB

Details ICAO CYBB (YBB)
Name KUGAARUK
Region Canada
Timezone America/Cambridge_Bay (UTC-6.0)
Plans Departing 10
Arriving 18
Stats Elevation 56 ft / 17 m (AMSL)
Location 68.534443° -89.808055°
Runways 1
Magnetic Variation 16.624° W
Sunrise Unknown / Unknown
Sunset Unknown / Unknown
Advertisement - Login to hide

Runways

ID Width Length Bearing (true) Bearing (mag) Surface Threshold Offset Overrun Length
05T 100 ft / 30 m 4,982 ft / 1,519 m 49.38° 66.00° Gravel 0 ft / 0 m 0 ft / 0 m
23T 100 ft / 30 m 4,982 ft / 1,519 m 229.41° 246.03° Gravel 0 ft / 0 m 0 ft / 0 m

Map

Weather


0- 5 10 15 20 25 30 35+ Temperature / ° C

Clouds and Precipitation
Forecast for 2018-05-28 00:00 UTC. Updated 5 hours ago

Ground ~20,000 ft ~40,000 ft Winds

METAR

Not found

TAF

TAF CYBB 271838Z 2719/2723 36015KT P6SM OVC012 TEMPO 2719/2723 3SM -SN BKN009 OVC012 RMK NXT FCST WILL BE ISSUED AT 281345Z

Frequencies

Unicom 122.10 MHz MANDATORY FREQ
Warning: Do not use this data for real-world aviation or navigation. No guarantee of current accuracy is given.